sensor_id;sensor_type;location;lat;lon;timestamp;P1;durP1;ratioP1;P2;durP2;ratioP2
57401;SDS011;43226;51.110;6.998;2023-05-31T00:02:12;7.63;;;4.60;;
57401;SDS011;43226;51.110;6.998;2023-05-31T00:04:37;7.80;;;4.90;;
57401;SDS011;43226;51.110;6.998;2023-05-31T00:07:02;7.45;;;4.72;;
57401;SDS011;43226;51.110;6.998;2023-05-31T00:09:27;12.43;;;4.60;;
57401;SDS011;43226;51.110;6.998;2023-05-31T00:11:52;10.13;;;4.73;;
57401;SDS011;43226;51.110;6.998;2023-05-31T00:14:17;11.23;;;4.50;;
57401;SDS011;43226;51.110;6.998;2023-05-31T00:16:43;13.10;;;5.80;;
57401;SDS011;43226;51.110;6.998;2023-05-31T00:19:08;11.90;;;4.50;;
57401;SDS011;43226;51.110;6.998;2023-05-31T00:21:33;9.87;;;4.80;;
57401;SDS011;43226;51.110;6.998;2023-05-31T00:23:58;8.10;;;4.50;;
57401;SDS011;43226;51.110;6.998;2023-05-31T00:26:23;8.80;;;4.30;;
57401;SDS011;43226;51.110;6.998;2023-05-31T00:28:48;12.33;;;7.83;;
57401;SDS011;43226;51.110;6.998;2023-05-31T00:31:14;8.50;;;4.77;;
57401;SDS011;43226;51.110;6.998;2023-05-31T00:33:39;11.50;;;4.30;;
57401;SDS011;43226;51.110;6.998;2023-05-31T00:36:04;12.30;;;5.53;;
57401;SDS011;43226;51.110;6.998;2023-05-31T00:38:30;8.13;;;4.40;;
57401;SDS011;43226;51.110;6.998;2023-05-31T00:40:55;11.00;;;4.70;;
57401;SDS011;43226;51.110;6.998;2023-05-31T00:43:20;7.43;;;4.80;;
57401;SDS011;43226;51.110;6.998;2023-05-31T00:45:45;11.20;;;5.27;;
57401;SDS011;43226;51.110;6.998;2023-05-31T00:48:10;7.77;;;4.30;;
57401;SDS011;43226;51.110;6.998;2023-05-31T00:50:36;10.07;;;5.00;;
57401;SDS011;43226;51.110;6.998;2023-05-31T00:53:01;9.33;;;4.70;;
57401;SDS011;43226;51.110;6.998;2023-05-31T00:55:28;7.90;;;4.40;;
57401;SDS011;43226;51.110;6.998;2023-05-31T00:57:53;4.00;;;3.23;;
57401;SDS011;43226;51.110;6.998;2023-05-31T01:00:19;7.83;;;4.20;;
57401;SDS011;43226;51.110;6.998;2023-05-31T01:02:44;7.03;;;4.23;;
57401;SDS011;43226;51.110;6.998;2023-05-31T01:05:10;9.27;;;4.70;;
57401;SDS011;43226;51.110;6.998;2023-05-31T01:07:35;10.90;;;4.50;;
57401;SDS011;43226;51.110;6.998;2023-05-31T01:10:02;12.37;;;4.93;;
57401;SDS011;43226;51.110;6.998;2023-05-31T01:18:26;8.33;;;4.30;;
57401;SDS011;43226;51.110;6.998;2023-05-31T01:20:27;9.00;;;4.57;;
57401;SDS011;43226;51.110;6.998;2023-05-31T01:28:09;8.60;;;3.93;;
57401;SDS011;43226;51.110;6.998;2023-05-31T01:30:36;10.07;;;3.90;;
57401;SDS011;43226;51.110;6.998;2023-05-31T01:33:01;6.43;;;4.37;;
57401;SDS011;43226;51.110;6.998;2023-05-31T01:35:28;8.87;;;4.40;;
57401;SDS011;43226;51.110;6.998;2023-05-31T01:37:53;5.27;;;4.40;;
57401;SDS011;43226;51.110;6.998;2023-05-31T01:40:18;6.90;;;4.50;;
57401;SDS011;43226;51.110;6.998;2023-05-31T01:42:43;9.07;;;3.63;;
57401;SDS011;43226;51.110;6.998;2023-05-31T01:45:10;8.23;;;4.23;;
57401;SDS011;43226;51.110;6.998;2023-05-31T01:47:35;9.67;;;4.37;;
57401;SDS011;43226;51.110;6.998;2023-05-31T01:50:01;9.17;;;4.20;;
57401;SDS011;43226;51.110;6.998;2023-05-31T01:52:27;8.97;;;4.60;;
57401;SDS011;43226;51.110;6.998;2023-05-31T01:54:53;9.57;;;3.80;;
57401;SDS011;43226;51.110;6.998;2023-05-31T01:57:18;10.43;;;3.77;;
57401;SDS011;43226;51.110;6.998;2023-05-31T01:59:44;6.30;;;4.40;;
57401;SDS011;43226;51.110;6.998;2023-05-31T02:02:10;6.10;;;3.60;;
57401;SDS011;43226;51.110;6.998;2023-05-31T02:04:36;9.30;;;4.03;;
57401;SDS011;43226;51.110;6.998;2023-05-31T02:07:01;6.50;;;4.17;;
57401;SDS011;43226;51.110;6.998;2023-05-31T02:09:27;7.63;;;4.13;;
57401;SDS011;43226;51.110;6.998;2023-05-31T02:11:52;7.67;;;4.73;;
57401;SDS011;43226;51.110;6.998;2023-05-31T02:14:17;13.07;;;4.70;;
57401;SDS011;43226;51.110;6.998;2023-05-31T02:16:43;11.27;;;4.20;;
57401;SDS011;43226;51.110;6.998;2023-05-31T02:19:08;8.30;;;4.77;;
57401;SDS011;43226;51.110;6.998;2023-05-31T02:21:33;17.80;;;4.50;;
57401;SDS011;43226;51.110;6.998;2023-05-31T02:24:02;4.97;;;3.37;;
57401;SDS011;43226;51.110;6.998;2023-05-31T02:26:27;8.23;;;3.70;;
57401;SDS011;43226;51.110;6.998;2023-05-31T02:28:52;6.37;;;3.50;;
57401;SDS011;43226;51.110;6.998;2023-05-31T02:31:17;7.10;;;3.80;;
57401;SDS011;43226;51.110;6.998;2023-05-31T02:33:42;10.70;;;4.07;;
57401;SDS011;43226;51.110;6.998;2023-05-31T02:36:08;11.87;;;3.80;;
57401;SDS011;43226;51.110;6.998;2023-05-31T02:38:33;6.23;;;3.80;;
57401;SDS011;43226;51.110;6.998;2023-05-31T02:40:59;8.67;;;3.73;;
57401;SDS011;43226;51.110;6.998;2023-05-31T02:43:24;5.97;;;3.70;;
57401;SDS011;43226;51.110;6.998;2023-05-31T02:45:49;5.60;;;3.67;;
57401;SDS011;43226;51.110;6.998;2023-05-31T02:48:15;8.13;;;4.10;;
57401;SDS011;43226;51.110;6.998;2023-05-31T02:50:40;4.50;;;3.57;;
57401;SDS011;43226;51.110;6.998;2023-05-31T02:53:05;6.50;;;3.67;;
57401;SDS011;43226;51.110;6.998;2023-05-31T02:55:31;8.80;;;3.13;;
57401;SDS011;43226;51.110;6.998;2023-05-31T02:57:56;7.83;;;4.00;;
57401;SDS011;43226;51.110;6.998;2023-05-31T03:00:21;8.57;;;3.70;;
57401;SDS011;43226;51.110;6.998;2023-05-31T03:02:47;6.53;;;3.83;;
57401;SDS011;43226;51.110;6.998;2023-05-31T03:05:12;11.77;;;4.63;;
57401;SDS011;43226;51.110;6.998;2023-05-31T03:07:38;3.73;;;3.33;;
57401;SDS011;43226;51.110;6.998;2023-05-31T03:10:03;8.40;;;3.53;;
57401;SDS011;43226;51.110;6.998;2023-05-31T03:12:32;8.80;;;3.80;;
57401;SDS011;43226;51.110;6.998;2023-05-31T03:14:57;7.37;;;3.67;;
57401;SDS011;43226;51.110;6.998;2023-05-31T03:17:23;5.30;;;3.20;;
57401;SDS011;43226;51.110;6.998;2023-05-31T03:19:48;4.90;;;3.97;;
57401;SDS011;43226;51.110;6.998;2023-05-31T03:22:13;7.23;;;3.70;;
57401;SDS011;43226;51.110;6.998;2023-05-31T03:24:38;8.30;;;3.13;;
57401;SDS011;43226;51.110;6.998;2023-05-31T03:27:04;5.67;;;3.23;;
57401;SDS011;43226;51.110;6.998;2023-05-31T03:29:30;3.63;;;3.33;;
57401;SDS011;43226;51.110;6.998;2023-05-31T03:31:55;8.03;;;3.40;;
57401;SDS011;43226;51.110;6.998;2023-05-31T03:34:20;9.20;;;3.70;;
57401;SDS011;43226;51.110;6.998;2023-05-31T03:36:47;5.10;;;3.37;;
57401;SDS011;43226;51.110;6.998;2023-05-31T03:39:13;4.53;;;3.10;;
57401;SDS011;43226;51.110;6.998;2023-05-31T03:41:38;9.37;;;3.87;;
57401;SDS011;43226;51.110;6.998;2023-05-31T03:44:03;8.00;;;2.90;;
57401;SDS011;43226;51.110;6.998;2023-05-31T03:46:28;5.43;;;3.30;;
57401;SDS011;43226;51.110;6.998;2023-05-31T03:48:53;6.33;;;3.20;;
57401;SDS011;43226;51.110;6.998;2023-05-31T03:51:19;4.70;;;2.87;;
57401;SDS011;43226;51.110;6.998;2023-05-31T03:53:44;8.00;;;3.87;;
57401;SDS011;43226;51.110;6.998;2023-05-31T03:56:09;5.80;;;3.63;;
57401;SDS011;43226;51.110;6.998;2023-05-31T03:58:34;7.73;;;3.60;;
57401;SDS011;43226;51.110;6.998;2023-05-31T04:01:00;6.27;;;3.30;;
57401;SDS011;43226;51.110;6.998;2023-05-31T04:03:25;7.90;;;3.60;;
57401;SDS011;43226;51.110;6.998;2023-05-31T04:05:51;5.80;;;3.67;;
57401;SDS011;43226;51.110;6.998;2023-05-31T04:08:16;6.17;;;3.63;;
57401;SDS011;43226;51.110;6.998;2023-05-31T04:10:42;11.57;;;3.50;;
57401;SDS011;43226;51.110;6.998;2023-05-31T04:13:07;6.13;;;3.73;;
57401;SDS011;43226;51.110;6.998;2023-05-31T04:15:32;7.30;;;2.97;;
57401;SDS011;43226;51.110;6.998;2023-05-31T04:17:57;4.63;;;3.27;;
57401;SDS011;43226;51.110;6.998;2023-05-31T04:20:23;4.90;;;3.00;;
57401;SDS011;43226;51.110;6.998;2023-05-31T04:22:48;6.10;;;3.50;;
57401;SDS011;43226;51.110;6.998;2023-05-31T04:25:13;6.70;;;3.87;;
57401;SDS011;43226;51.110;6.998;2023-05-31T04:27:42;7.27;;;3.10;;
57401;SDS011;43226;51.110;6.998;2023-05-31T04:30:07;8.77;;;3.50;;
57401;SDS011;43226;51.110;6.998;2023-05-31T04:32:33;12.23;;;3.30;;
57401;SDS011;43226;51.110;6.998;2023-05-31T04:34:59;6.93;;;3.07;;
57401;SDS011;43226;51.110;6.998;2023-05-31T04:37:24;6.40;;;3.40;;
57401;SDS011;43226;51.110;6.998;2023-05-31T04:39:51;5.93;;;3.80;;
57401;SDS011;43226;51.110;6.998;2023-05-31T04:42:16;3.90;;;3.00;;
57401;SDS011;43226;51.110;6.998;2023-05-31T04:44:42;4.73;;;2.70;;
57401;SDS011;43226;51.110;6.998;2023-05-31T04:47:07;5.80;;;3.00;;
57401;SDS011;43226;51.110;6.998;2023-05-31T04:49:33;4.40;;;3.43;;
57401;SDS011;43226;51.110;6.998;2023-05-31T04:51:58;6.27;;;3.20;;
57401;SDS011;43226;51.110;6.998;2023-05-31T04:54:24;5.27;;;2.90;;
57401;SDS011;43226;51.110;6.998;2023-05-31T04:56:49;8.07;;;2.53;;
57401;SDS011;43226;51.110;6.998;2023-05-31T04:59:15;6.40;;;3.43;;
57401;SDS011;43226;51.110;6.998;2023-05-31T05:01:40;4.30;;;2.90;;
57401;SDS011;43226;51.110;6.998;2023-05-31T05:04:05;4.77;;;2.50;;
57401;SDS011;43226;51.110;6.998;2023-05-31T05:06:31;4.60;;;2.63;;
57401;SDS011;43226;51.110;6.998;2023-05-31T05:08:57;6.27;;;2.53;;
57401;SDS011;43226;51.110;6.998;2023-05-31T05:11:23;6.90;;;2.60;;
57401;SDS011;43226;51.110;6.998;2023-05-31T05:13:48;3.60;;;2.90;;
57401;SDS011;43226;51.110;6.998;2023-05-31T05:16:13;3.63;;;2.60;;
57401;SDS011;43226;51.110;6.998;2023-05-31T05:18:39;5.00;;;2.93;;
57401;SDS011;43226;51.110;6.998;2023-05-31T05:21:04;7.80;;;3.20;;
57401;SDS011;43226;51.110;6.998;2023-05-31T05:23:30;8.50;;;3.10;;
57401;SDS011;43226;51.110;6.998;2023-05-31T05:25:56;6.10;;;3.47;;
57401;SDS011;43226;51.110;6.998;2023-05-31T05:28:21;3.03;;;2.55;;
57401;SDS011;43226;51.110;6.998;2023-05-31T05:30:47;3.40;;;2.73;;
57401;SDS011;43226;51.110;6.998;2023-05-31T05:33:12;3.77;;;2.80;;
57401;SDS011;43226;51.110;6.998;2023-05-31T05:35:37;4.37;;;2.90;;
57401;SDS011;43226;51.110;6.998;2023-05-31T05:38:03;3.33;;;2.50;;
57401;SDS011;43226;51.110;6.998;2023-05-31T05:40:28;5.50;;;2.70;;
57401;SDS011;43226;51.110;6.998;2023-05-31T05:42:53;6.80;;;2.80;;
57401;SDS011;43226;51.110;6.998;2023-05-31T05:45:18;5.70;;;3.07;;
57401;SDS011;43226;51.110;6.998;2023-05-31T05:47:43;7.33;;;3.27;;
57401;SDS011;43226;51.110;6.998;2023-05-31T05:50:10;7.30;;;2.93;;
57401;SDS011;43226;51.110;6.998;2023-05-31T05:52:35;7.50;;;2.60;;
57401;SDS011;43226;51.110;6.998;2023-05-31T05:55:00;2.73;;;2.40;;
57401;SDS011;43226;51.110;6.998;2023-05-31T05:57:26;6.17;;;3.03;;
57401;SDS011;43226;51.110;6.998;2023-05-31T05:59:51;2.80;;;2.30;;
57401;SDS011;43226;51.110;6.998;2023-05-31T06:02:17;3.77;;;2.67;;
57401;SDS011;43226;51.110;6.998;2023-05-31T06:04:42;4.73;;;3.00;;
57401;SDS011;43226;51.110;6.998;2023-05-31T06:07:07;3.97;;;2.60;;
57401;SDS011;43226;51.110;6.998;2023-05-31T06:09:33;6.10;;;2.90;;
57401;SDS011;43226;51.110;6.998;2023-05-31T06:11:58;6.60;;;2.60;;
57401;SDS011;43226;51.110;6.998;2023-05-31T06:14:33;4.30;;;2.73;;
57401;SDS011;43226;51.110;6.998;2023-05-31T06:16:58;7.57;;;3.27;;
57401;SDS011;43226;51.110;6.998;2023-05-31T06:19:23;3.90;;;2.72;;
57401;SDS011;43226;51.110;6.998;2023-05-31T06:21:48;4.97;;;2.40;;
57401;SDS011;43226;51.110;6.998;2023-05-31T06:24:14;3.97;;;2.40;;
57401;SDS011;43226;51.110;6.998;2023-05-31T06:26:39;6.33;;;2.53;;
57401;SDS011;43226;51.110;6.998;2023-05-31T06:29:04;3.70;;;2.17;;
57401;SDS011;43226;51.110;6.998;2023-05-31T06:31:29;10.10;;;2.37;;
57401;SDS011;43226;51.110;6.998;2023-05-31T06:33:56;3.47;;;2.70;;
57401;SDS011;43226;51.110;6.998;2023-05-31T06:36:21;3.70;;;2.67;;
57401;SDS011;43226;51.110;6.998;2023-05-31T06:38:46;5.53;;;3.00;;
57401;SDS011;43226;51.110;6.998;2023-05-31T06:41:12;8.83;;;2.73;;
57401;SDS011;43226;51.110;6.998;2023-05-31T06:43:37;6.03;;;2.33;;
57401;SDS011;43226;51.110;6.998;2023-05-31T06:46:02;2.53;;;2.13;;
57401;SDS011;43226;51.110;6.998;2023-05-31T06:48:27;7.57;;;2.00;;
57401;SDS011;43226;51.110;6.998;2023-05-31T06:50:52;3.50;;;2.10;;
57401;SDS011;43226;51.110;6.998;2023-05-31T06:53:18;4.70;;;2.67;;
57401;SDS011;43226;51.110;6.998;2023-05-31T06:55:43;4.13;;;1.80;;
57401;SDS011;43226;51.110;6.998;2023-05-31T06:58:08;3.70;;;1.90;;
57401;SDS011;43226;51.110;6.998;2023-05-31T07:00:33;3.77;;;2.20;;
57401;SDS011;43226;51.110;6.998;2023-05-31T07:02:59;5.00;;;2.20;;
57401;SDS011;43226;51.110;6.998;2023-05-31T07:05:24;4.83;;;2.13;;
57401;SDS011;43226;51.110;6.998;2023-05-31T07:07:49;5.00;;;1.63;;
57401;SDS011;43226;51.110;6.998;2023-05-31T07:10:15;2.20;;;2.00;;
57401;SDS011;43226;51.110;6.998;2023-05-31T07:12:40;5.23;;;2.30;;
57401;SDS011;43226;51.110;6.998;2023-05-31T07:15:05;10.63;;;2.00;;
57401;SDS011;43226;51.110;6.998;2023-05-31T07:17:31;2.73;;;1.83;;
57401;SDS011;43226;51.110;6.998;2023-05-31T07:19:56;1.70;;;1.60;;
57401;SDS011;43226;51.110;6.998;2023-05-31T07:22:21;4.67;;;2.00;;
57401;SDS011;43226;51.110;6.998;2023-05-31T07:24:47;6.03;;;2.07;;
57401;SDS011;43226;51.110;6.998;2023-05-31T07:27:12;2.60;;;1.80;;
57401;SDS011;43226;51.110;6.998;2023-05-31T07:29:37;2.93;;;1.67;;
57401;SDS011;43226;51.110;6.998;2023-05-31T07:32:03;6.23;;;1.80;;
57401;SDS011;43226;51.110;6.998;2023-05-31T07:34:28;3.07;;;1.80;;
57401;SDS011;43226;51.110;6.998;2023-05-31T07:36:53;3.03;;;1.50;;
57401;SDS011;43226;51.110;6.998;2023-05-31T07:39:20;1.70;;;1.60;;
57401;SDS011;43226;51.110;6.998;2023-05-31T07:41:46;2.10;;;1.40;;
57401;SDS011;43226;51.110;6.998;2023-05-31T07:44:11;3.37;;;1.70;;
57401;SDS011;43226;51.110;6.998;2023-05-31T07:46:36;3.77;;;2.17;;
57401;SDS011;43226;51.110;6.998;2023-05-31T07:49:02;3.47;;;2.07;;
57401;SDS011;43226;51.110;6.998;2023-05-31T07:51:30;3.17;;;1.47;;
57401;SDS011;43226;51.110;6.998;2023-05-31T07:53:56;2.50;;;1.63;;
57401;SDS011;43226;51.110;6.998;2023-05-31T07:56:22;11.83;;;1.60;;
57401;SDS011;43226;51.110;6.998;2023-05-31T07:58:47;5.33;;;1.70;;
57401;SDS011;43226;51.110;6.998;2023-05-31T08:01:12;3.50;;;1.40;;
57401;SDS011;43226;51.110;6.998;2023-05-31T08:03:38;2.80;;;1.60;;
57401;SDS011;43226;51.110;6.998;2023-05-31T08:06:03;4.00;;;1.90;;
57401;SDS011;43226;51.110;6.998;2023-05-31T08:08:29;4.03;;;1.93;;
57401;SDS011;43226;51.110;6.998;2023-05-31T08:10:57;2.03;;;1.83;;
57401;SDS011;43226;51.110;6.998;2023-05-31T08:13:22;2.90;;;1.70;;
57401;SDS011;43226;51.110;6.998;2023-05-31T08:15:49;3.20;;;2.00;;
57401;SDS011;43226;51.110;6.998;2023-05-31T08:18:14;2.50;;;2.07;;
57401;SDS011;43226;51.110;6.998;2023-05-31T08:20:39;2.70;;;2.00;;
57401;SDS011;43226;51.110;6.998;2023-05-31T08:23:05;2.53;;;1.60;;
57401;SDS011;43226;51.110;6.998;2023-05-31T08:25:30;4.90;;;1.87;;
57401;SDS011;43226;51.110;6.998;2023-05-31T08:27:57;2.30;;;2.07;;
57401;SDS011;43226;51.110;6.998;2023-05-31T08:30:22;3.67;;;1.73;;
57401;SDS011;43226;51.110;6.998;2023-05-31T08:32:47;2.00;;;1.73;;
57401;SDS011;43226;51.110;6.998;2023-05-31T08:35:12;2.53;;;1.70;;
57401;SDS011;43226;51.110;6.998;2023-05-31T08:37:38;6.83;;;2.03;;
57401;SDS011;43226;51.110;6.998;2023-05-31T08:40:04;4.03;;;1.83;;
57401;SDS011;43226;51.110;6.998;2023-05-31T08:45:25;3.50;;;1.77;;
57401;SDS011;43226;51.110;6.998;2023-05-31T08:50:27;4.97;;;1.70;;
57401;SDS011;43226;51.110;6.998;2023-05-31T08:52:53;2.03;;;1.63;;
57401;SDS011;43226;51.110;6.998;2023-05-31T08:55:20;2.93;;;1.73;;
57401;SDS011;43226;51.110;6.998;2023-05-31T08:57:45;2.60;;;1.90;;
57401;SDS011;43226;51.110;6.998;2023-05-31T09:00:11;2.50;;;2.13;;
57401;SDS011;43226;51.110;6.998;2023-05-31T09:02:37;1.93;;;1.43;;
57401;SDS011;43226;51.110;6.998;2023-05-31T09:05:03;1.70;;;1.60;;
57401;SDS011;43226;51.110;6.998;2023-05-31T09:07:29;2.33;;;1.50;;
57401;SDS011;43226;51.110;6.998;2023-05-31T09:09:55;3.50;;;1.97;;
57401;SDS011;43226;51.110;6.998;2023-05-31T09:12:20;2.00;;;1.30;;
57401;SDS011;43226;51.110;6.998;2023-05-31T09:14:45;1.73;;;1.63;;
57401;SDS011;43226;51.110;6.998;2023-05-31T09:17:11;3.30;;;1.97;;
57401;SDS011;43226;51.110;6.998;2023-05-31T09:19:40;8.00;;;2.20;;
57401;SDS011;43226;51.110;6.998;2023-05-31T09:22:05;4.77;;;1.67;;
57401;SDS011;43226;51.110;6.998;2023-05-31T09:24:30;2.40;;;1.73;;
57401;SDS011;43226;51.110;6.998;2023-05-31T09:26:56;2.67;;;1.67;;
57401;SDS011;43226;51.110;6.998;2023-05-31T09:29:21;5.13;;;1.70;;
57401;SDS011;43226;51.110;6.998;2023-05-31T09:31:47;2.03;;;1.80;;
57401;SDS011;43226;51.110;6.998;2023-05-31T09:34:25;2.67;;;1.87;;
57401;SDS011;43226;51.110;6.998;2023-05-31T09:36:51;3.80;;;2.10;;
57401;SDS011;43226;51.110;6.998;2023-05-31T09:39:17;3.93;;;1.87;;
57401;SDS011;43226;51.110;6.998;2023-05-31T09:41:42;7.80;;;1.97;;
57401;SDS011;43226;51.110;6.998;2023-05-31T09:44:07;2.30;;;1.80;;
57401;SDS011;43226;51.110;6.998;2023-05-31T09:46:33;4.80;;;1.80;;
57401;SDS011;43226;51.110;6.998;2023-05-31T09:49:03;2.13;;;1.80;;
57401;SDS011;43226;51.110;6.998;2023-05-31T09:51:29;2.40;;;1.90;;
57401;SDS011;43226;51.110;6.998;2023-05-31T09:53:55;4.13;;;1.60;;
57401;SDS011;43226;51.110;6.998;2023-05-31T09:56:21;2.00;;;1.80;;
57401;SDS011;43226;51.110;6.998;2023-05-31T09:58:47;7.20;;;1.80;;
57401;SDS011;43226;51.110;6.998;2023-05-31T10:01:13;5.50;;;1.60;;
57401;SDS011;43226;51.110;6.998;2023-05-31T10:03:39;1.70;;;1.60;;
57401;SDS011;43226;51.110;6.998;2023-05-31T10:06:05;3.07;;;1.80;;
57401;SDS011;43226;51.110;6.998;2023-05-31T10:08:30;4.63;;;1.53;;
57401;SDS011;43226;51.110;6.998;2023-05-31T10:10:59;2.13;;;1.47;;
57401;SDS011;43226;51.110;6.998;2023-05-31T10:13:28;2.57;;;1.40;;
57401;SDS011;43226;51.110;6.998;2023-05-31T10:15:54;5.07;;;1.57;;
57401;SDS011;43226;51.110;6.998;2023-05-31T10:18:20;4.60;;;1.90;;
57401;SDS011;43226;51.110;6.998;2023-05-31T10:20:48;3.50;;;1.83;;
57401;SDS011;43226;51.110;6.998;2023-05-31T10:23:17;2.50;;;1.93;;
57401;SDS011;43226;51.110;6.998;2023-05-31T10:25:47;3.07;;;1.80;;
57401;SDS011;43226;51.110;6.998;2023-05-31T10:28:14;1.87;;;1.60;;
57401;SDS011;43226;51.110;6.998;2023-05-31T10:30:42;2.57;;;1.70;;
57401;SDS011;43226;51.110;6.998;2023-05-31T10:33:11;5.10;;;1.63;;
57401;SDS011;43226;51.110;6.998;2023-05-31T10:35:37;5.13;;;1.90;;
57401;SDS011;43226;51.110;6.998;2023-05-31T10:38:02;3.37;;;1.77;;
57401;SDS011;43226;51.110;6.998;2023-05-31T10:45:39;3.70;;;2.40;;
57401;SDS011;43226;51.110;6.998;2023-05-31T10:50:31;3.43;;;2.20;;
57401;SDS011;43226;51.110;6.998;2023-05-31T10:53:10;1.97;;;1.50;;
57401;SDS011;43226;51.110;6.998;2023-05-31T10:55:42;2.87;;;1.83;;
57401;SDS011;43226;51.110;6.998;2023-05-31T10:58:10;4.20;;;2.10;;
57401;SDS011;43226;51.110;6.998;2023-05-31T11:00:48;1.90;;;1.47;;
57401;SDS011;43226;51.110;6.998;2023-05-31T11:03:19;8.97;;;1.73;;
57401;SDS011;43226;51.110;6.998;2023-05-31T11:05:53;5.13;;;2.33;;
57401;SDS011;43226;51.110;6.998;2023-05-31T11:08:18;4.30;;;2.13;;
57401;SDS011;43226;51.110;6.998;2023-05-31T11:10:44;4.97;;;2.23;;
57401;SDS011;43226;51.110;6.998;2023-05-31T11:13:09;2.87;;;2.00;;
57401;SDS011;43226;51.110;6.998;2023-05-31T11:15:41;6.97;;;2.60;;
57401;SDS011;43226;51.110;6.998;2023-05-31T11:18:08;4.47;;;2.23;;
57401;SDS011;43226;51.110;6.998;2023-05-31T11:20:34;3.67;;;2.37;;
57401;SDS011;43226;51.110;6.998;2023-05-31T11:25:44;2.50;;;1.90;;
57401;SDS011;43226;51.110;6.998;2023-05-31T11:28:09;4.03;;;1.90;;
57401;SDS011;43226;51.110;6.998;2023-05-31T11:30:35;3.43;;;2.07;;
57401;SDS011;43226;51.110;6.998;2023-05-31T11:33:01;3.00;;;1.90;;
57401;SDS011;43226;51.110;6.998;2023-05-31T11:35:26;5.17;;;3.13;;
57401;SDS011;43226;51.110;6.998;2023-05-31T11:37:59;3.57;;;2.17;;
57401;SDS011;43226;51.110;6.998;2023-05-31T11:40:24;4.20;;;2.07;;
57401;SDS011;43226;51.110;6.998;2023-05-31T11:42:50;3.53;;;2.00;;
57401;SDS011;43226;51.110;6.998;2023-05-31T11:45:16;5.40;;;2.23;;
57401;SDS011;43226;51.110;6.998;2023-05-31T11:50:29;4.57;;;2.10;;
57401;SDS011;43226;51.110;6.998;2023-05-31T11:52:55;3.03;;;2.20;;
57401;SDS011;43226;51.110;6.998;2023-05-31T11:55:24;5.33;;;2.03;;
57401;SDS011;43226;51.110;6.998;2023-05-31T11:57:55;3.90;;;1.93;;
57401;SDS011;43226;51.110;6.998;2023-05-31T12:00:21;2.53;;;2.20;;
57401;SDS011;43226;51.110;6.998;2023-05-31T12:02:50;2.17;;;1.97;;
57401;SDS011;43226;51.110;6.998;2023-05-31T12:05:17;5.07;;;2.47;;
57401;SDS011;43226;51.110;6.998;2023-05-31T12:07:46;3.50;;;2.00;;
57401;SDS011;43226;51.110;6.998;2023-05-31T12:10:15;4.27;;;2.50;;
57401;SDS011;43226;51.110;6.998;2023-05-31T12:12:40;3.00;;;1.57;;
57401;SDS011;43226;51.110;6.998;2023-05-31T12:15:05;3.30;;;1.83;;
57401;SDS011;43226;51.110;6.998;2023-05-31T12:17:31;3.73;;;2.27;;
57401;SDS011;43226;51.110;6.998;2023-05-31T12:19:56;3.20;;;2.53;;
57401;SDS011;43226;51.110;6.998;2023-05-31T12:22:21;8.37;;;2.20;;
57401;SDS011;43226;51.110;6.998;2023-05-31T12:24:54;2.97;;;1.90;;
57401;SDS011;43226;51.110;6.998;2023-05-31T12:27:20;2.63;;;2.13;;
57401;SDS011;43226;51.110;6.998;2023-05-31T12:29:46;2.30;;;2.10;;
57401;SDS011;43226;51.110;6.998;2023-05-31T12:32:11;6.50;;;2.53;;
57401;SDS011;43226;51.110;6.998;2023-05-31T12:34:37;2.20;;;2.00;;
57401;SDS011;43226;51.110;6.998;2023-05-31T12:37:04;7.43;;;2.30;;
57401;SDS011;43226;51.110;6.998;2023-05-31T12:39:29;4.13;;;2.73;;
57401;SDS011;43226;51.110;6.998;2023-05-31T12:41:55;4.10;;;2.50;;
57401;SDS011;43226;51.110;6.998;2023-05-31T12:44:22;2.80;;;2.57;;
57401;SDS011;43226;51.110;6.998;2023-05-31T12:46:48;2.93;;;1.80;;
57401;SDS011;43226;51.110;6.998;2023-05-31T12:49:18;3.80;;;2.30;;
57401;SDS011;43226;51.110;6.998;2023-05-31T12:51:44;4.50;;;2.43;;
57401;SDS011;43226;51.110;6.998;2023-05-31T12:54:10;4.90;;;2.30;;
57401;SDS011;43226;51.110;6.998;2023-05-31T12:56:36;3.60;;;2.50;;
57401;SDS011;43226;51.110;6.998;2023-05-31T12:59:01;6.07;;;2.20;;
57401;SDS011;43226;51.110;6.998;2023-05-31T13:01:27;8.57;;;2.10;;
57401;SDS011;43226;51.110;6.998;2023-05-31T13:03:52;2.43;;;2.20;;
57401;SDS011;43226;51.110;6.998;2023-05-31T13:06:17;3.53;;;2.07;;
57401;SDS011;43226;51.110;6.998;2023-05-31T13:08:43;2.60;;;2.17;;
57401;SDS011;43226;51.110;6.998;2023-05-31T13:11:09;2.63;;;2.10;;
57401;SDS011;43226;51.110;6.998;2023-05-31T13:13:34;2.90;;;1.80;;
57401;SDS011;43226;51.110;6.998;2023-05-31T13:15:59;2.27;;;1.70;;
57401;SDS011;43226;51.110;6.998;2023-05-31T13:18:25;3.30;;;2.40;;
57401;SDS011;43226;51.110;6.998;2023-05-31T13:20:50;2.53;;;1.90;;
57401;SDS011;43226;51.110;6.998;2023-05-31T13:23:15;3.42;;;2.40;;
57401;SDS011;43226;51.110;6.998;2023-05-31T13:25:40;2.13;;;1.90;;
57401;SDS011;43226;51.110;6.998;2023-05-31T13:28:06;13.73;;;2.27;;
57401;SDS011;43226;51.110;6.998;2023-05-31T13:30:31;4.90;;;1.70;;
57401;SDS011;43226;51.110;6.998;2023-05-31T13:32:56;1.87;;;1.77;;
57401;SDS011;43226;51.110;6.998;2023-05-31T13:35:21;2.37;;;2.00;;
57401;SDS011;43226;51.110;6.998;2023-05-31T13:37:46;3.60;;;2.27;;
57401;SDS011;43226;51.110;6.998;2023-05-31T13:40:11;2.90;;;2.10;;
57401;SDS011;43226;51.110;6.998;2023-05-31T13:42:37;2.70;;;2.17;;
57401;SDS011;43226;51.110;6.998;2023-05-31T13:45:02;2.50;;;1.70;;
57401;SDS011;43226;51.110;6.998;2023-05-31T13:47:28;3.37;;;2.30;;
57401;SDS011;43226;51.110;6.998;2023-05-31T13:49:53;3.00;;;1.87;;
57401;SDS011;43226;51.110;6.998;2023-05-31T13:52:18;3.67;;;2.07;;
57401;SDS011;43226;51.110;6.998;2023-05-31T13:54:43;3.07;;;2.20;;
57401;SDS011;43226;51.110;6.998;2023-05-31T13:57:08;2.83;;;1.87;;
57401;SDS011;43226;51.110;6.998;2023-05-31T13:59:34;3.60;;;2.10;;
57401;SDS011;43226;51.110;6.998;2023-05-31T14:01:59;3.67;;;2.00;;
57401;SDS011;43226;51.110;6.998;2023-05-31T14:04:24;7.17;;;2.30;;
57401;SDS011;43226;51.110;6.998;2023-05-31T14:06:49;3.67;;;1.97;;
57401;SDS011;43226;51.110;6.998;2023-05-31T14:09:15;3.30;;;2.03;;
57401;SDS011;43226;51.110;6.998;2023-05-31T14:11:42;2.47;;;1.80;;
57401;SDS011;43226;51.110;6.998;2023-05-31T14:14:07;2.47;;;1.97;;
57401;SDS011;43226;51.110;6.998;2023-05-31T14:16:33;3.83;;;2.00;;
57401;SDS011;43226;51.110;6.998;2023-05-31T14:18:59;3.50;;;2.00;;
57401;SDS011;43226;51.110;6.998;2023-05-31T14:21:25;2.60;;;1.80;;
57401;SDS011;43226;51.110;6.998;2023-05-31T14:23:51;4.10;;;1.80;;
57401;SDS011;43226;51.110;6.998;2023-05-31T14:26:16;5.90;;;2.43;;
57401;SDS011;43226;51.110;6.998;2023-05-31T14:28:42;5.77;;;1.80;;
57401;SDS011;43226;51.110;6.998;2023-05-31T14:31:08;4.50;;;2.13;;
57401;SDS011;43226;51.110;6.998;2023-05-31T14:33:33;6.10;;;2.27;;
57401;SDS011;43226;51.110;6.998;2023-05-31T14:35:58;2.37;;;1.87;;
57401;SDS011;43226;51.110;6.998;2023-05-31T14:38:23;3.00;;;2.00;;
57401;SDS011;43226;51.110;6.998;2023-05-31T14:40:49;7.90;;;2.57;;
57401;SDS011;43226;51.110;6.998;2023-05-31T14:43:16;2.00;;;1.80;;
57401;SDS011;43226;51.110;6.998;2023-05-31T14:45:41;4.63;;;2.80;;
57401;SDS011;43226;51.110;6.998;2023-05-31T14:48:06;3.37;;;1.97;;
57401;SDS011;43226;51.110;6.998;2023-05-31T14:50:32;3.40;;;1.90;;
57401;SDS011;43226;51.110;6.998;2023-05-31T14:52:57;7.33;;;2.00;;
57401;SDS011;43226;51.110;6.998;2023-05-31T14:55:22;6.70;;;1.97;;
57401;SDS011;43226;51.110;6.998;2023-05-31T14:57:47;4.57;;;2.00;;
57401;SDS011;43226;51.110;6.998;2023-05-31T15:00:13;5.23;;;2.10;;
57401;SDS011;43226;51.110;6.998;2023-05-31T15:02:39;3.27;;;2.30;;
57401;SDS011;43226;51.110;6.998;2023-05-31T15:05:05;3.97;;;2.37;;
57401;SDS011;43226;51.110;6.998;2023-05-31T15:07:31;7.53;;;2.00;;